sensor_id;sensor_type;location;lat;lon;timestamp;P1;durP1;ratioP1;P2;durP2;ratioP2
59880;SDS011;45751;51.380;10.326;2023-05-23T00:02:13;17.63;;;9.50;;
59880;SDS011;45751;51.380;10.326;2023-05-23T00:04:41;17.65;;;9.75;;
59880;SDS011;45751;51.380;10.326;2023-05-23T00:07:08;18.05;;;8.57;;
59880;SDS011;45751;51.380;10.326;2023-05-23T00:09:35;19.50;;;8.50;;
59880;SDS011;45751;51.380;10.326;2023-05-23T00:12:02;18.85;;;9.05;;
59880;SDS011;45751;51.380;10.326;2023-05-23T00:14:29;19.13;;;10.35;;
59880;SDS011;45751;51.380;10.326;2023-05-23T00:16:59;19.02;;;9.63;;
59880;SDS011;45751;51.380;10.326;2023-05-23T00:19:27;19.83;;;10.10;;
59880;SDS011;45751;51.380;10.326;2023-05-23T00:21:53;21.63;;;10.23;;
59880;SDS011;45751;51.380;10.326;2023-05-23T00:24:24;18.52;;;9.55;;
59880;SDS011;45751;51.380;10.326;2023-05-23T00:26:51;22.85;;;10.55;;
59880;SDS011;45751;51.380;10.326;2023-05-23T00:29:18;24.27;;;10.98;;
59880;SDS011;45751;51.380;10.326;2023-05-23T00:31:45;19.05;;;10.50;;
59880;SDS011;45751;51.380;10.326;2023-05-23T00:34:13;20.75;;;10.90;;
59880;SDS011;45751;51.380;10.326;2023-05-23T00:36:43;16.50;;;8.48;;
59880;SDS011;45751;51.380;10.326;2023-05-23T00:39:13;20.17;;;10.32;;
59880;SDS011;45751;51.380;10.326;2023-05-23T00:41:47;19.05;;;8.95;;
59880;SDS011;45751;51.380;10.326;2023-05-23T00:44:18;20.65;;;9.68;;
59880;SDS011;45751;51.380;10.326;2023-05-23T00:46:48;22.52;;;9.55;;
59880;SDS011;45751;51.380;10.326;2023-05-23T00:49:19;17.40;;;9.32;;
59880;SDS011;45751;51.380;10.326;2023-05-23T00:51:46;18.30;;;9.70;;
59880;SDS011;45751;51.380;10.326;2023-05-23T00:54:16;23.05;;;10.48;;
59880;SDS011;45751;51.380;10.326;2023-05-23T00:56:48;21.33;;;10.40;;
59880;SDS011;45751;51.380;10.326;2023-05-23T00:59:15;19.30;;;9.70;;
59880;SDS011;45751;51.380;10.326;2023-05-23T01:01:42;22.17;;;10.95;;
59880;SDS011;45751;51.380;10.326;2023-05-23T01:04:12;18.13;;;10.40;;
59880;SDS011;45751;51.380;10.326;2023-05-23T01:06:40;20.15;;;10.52;;
59880;SDS011;45751;51.380;10.326;2023-05-23T01:09:06;23.58;;;10.43;;
59880;SDS011;45751;51.380;10.326;2023-05-23T01:11:58;22.23;;;10.30;;
59880;SDS011;45751;51.380;10.326;2023-05-23T01:14:41;21.80;;;10.63;;
59880;SDS011;45751;51.380;10.326;2023-05-23T01:20:09;25.48;;;11.35;;
59880;SDS011;45751;51.380;10.326;2023-05-23T01:25:43;23.45;;;11.77;;
59880;SDS011;45751;51.380;10.326;2023-05-23T01:28:16;23.67;;;10.60;;
59880;SDS011;45751;51.380;10.326;2023-05-23T01:30:47;25.15;;;11.70;;
59880;SDS011;45751;51.380;10.326;2023-05-23T01:33:17;21.23;;;10.50;;
59880;SDS011;45751;51.380;10.326;2023-05-23T01:35:46;22.65;;;10.77;;
59880;SDS011;45751;51.380;10.326;2023-05-23T01:38:14;24.63;;;11.40;;
59880;SDS011;45751;51.380;10.326;2023-05-23T01:40:41;26.73;;;12.48;;
59880;SDS011;45751;51.380;10.326;2023-05-23T01:43:08;23.58;;;10.90;;
59880;SDS011;45751;51.380;10.326;2023-05-23T01:45:36;22.20;;;10.23;;
59880;SDS011;45751;51.380;10.326;2023-05-23T01:48:03;21.23;;;11.07;;
59880;SDS011;45751;51.380;10.326;2023-05-23T01:50:31;24.75;;;11.20;;
59880;SDS011;45751;51.380;10.326;2023-05-23T01:52:59;21.13;;;10.35;;
59880;SDS011;45751;51.380;10.326;2023-05-23T01:55:26;22.83;;;11.02;;
59880;SDS011;45751;51.380;10.326;2023-05-23T01:57:54;23.27;;;10.13;;
59880;SDS011;45751;51.380;10.326;2023-05-23T02:00:22;23.38;;;9.98;;
59880;SDS011;45751;51.380;10.326;2023-05-23T02:02:50;22.92;;;10.15;;
59880;SDS011;45751;51.380;10.326;2023-05-23T02:05:17;26.70;;;10.55;;
59880;SDS011;45751;51.380;10.326;2023-05-23T02:07:44;21.52;;;11.20;;
59880;SDS011;45751;51.380;10.326;2023-05-23T02:10:11;22.75;;;10.50;;
59880;SDS011;45751;51.380;10.326;2023-05-23T02:12:38;27.27;;;9.52;;
59880;SDS011;45751;51.380;10.326;2023-05-23T02:15:05;20.65;;;9.90;;
59880;SDS011;45751;51.380;10.326;2023-05-23T02:17:33;21.33;;;11.13;;
59880;SDS011;45751;51.380;10.326;2023-05-23T02:20:00;19.75;;;9.77;;
59880;SDS011;45751;51.380;10.326;2023-05-23T02:22:27;20.45;;;9.70;;
59880;SDS011;45751;51.380;10.326;2023-05-23T02:24:54;21.70;;;9.40;;
59880;SDS011;45751;51.380;10.326;2023-05-23T02:27:21;22.02;;;10.60;;
59880;SDS011;45751;51.380;10.326;2023-05-23T02:29:48;21.90;;;10.48;;
59880;SDS011;45751;51.380;10.326;2023-05-23T02:32:15;25.65;;;11.02;;
59880;SDS011;45751;51.380;10.326;2023-05-23T02:34:42;24.38;;;11.20;;
59880;SDS011;45751;51.380;10.326;2023-05-23T02:37:14;23.88;;;11.25;;
59880;SDS011;45751;51.380;10.326;2023-05-23T02:39:42;28.50;;;12.90;;
59880;SDS011;45751;51.380;10.326;2023-05-23T02:42:09;26.48;;;12.38;;
59880;SDS011;45751;51.380;10.326;2023-05-23T02:44:36;28.88;;;13.55;;
59880;SDS011;45751;51.380;10.326;2023-05-23T02:47:03;25.70;;;12.88;;
59880;SDS011;45751;51.380;10.326;2023-05-23T02:49:32;27.00;;;13.52;;
59880;SDS011;45751;51.380;10.326;2023-05-23T02:51:58;34.70;;;13.32;;
59880;SDS011;45751;51.380;10.326;2023-05-23T02:54:25;32.05;;;14.20;;
59880;SDS011;45751;51.380;10.326;2023-05-23T02:56:52;29.52;;;12.82;;
59880;SDS011;45751;51.380;10.326;2023-05-23T02:59:21;33.13;;;16.10;;
59880;SDS011;45751;51.380;10.326;2023-05-23T03:01:48;35.03;;;15.68;;
59880;SDS011;45751;51.380;10.326;2023-05-23T03:04:15;32.67;;;16.55;;
59880;SDS011;45751;51.380;10.326;2023-05-23T03:06:43;38.50;;;17.73;;
59880;SDS011;45751;51.380;10.326;2023-05-23T03:09:10;36.50;;;16.52;;
59880;SDS011;45751;51.380;10.326;2023-05-23T03:11:38;40.30;;;18.67;;
59880;SDS011;45751;51.380;10.326;2023-05-23T03:14:05;43.70;;;19.15;;
59880;SDS011;45751;51.380;10.326;2023-05-23T03:16:32;40.85;;;19.00;;
59880;SDS011;45751;51.380;10.326;2023-05-23T03:18:59;42.83;;;21.30;;
59880;SDS011;45751;51.380;10.326;2023-05-23T03:21:27;35.67;;;17.23;;
59880;SDS011;45751;51.380;10.326;2023-05-23T03:23:54;33.80;;;17.15;;
59880;SDS011;45751;51.380;10.326;2023-05-23T03:26:21;34.22;;;16.33;;
59880;SDS011;45751;51.380;10.326;2023-05-23T03:28:49;30.90;;;14.43;;
59880;SDS011;45751;51.380;10.326;2023-05-23T03:31:18;24.48;;;13.60;;
59880;SDS011;45751;51.380;10.326;2023-05-23T03:33:45;24.23;;;11.60;;
59880;SDS011;45751;51.380;10.326;2023-05-23T03:36:11;26.30;;;12.13;;
59880;SDS011;45751;51.380;10.326;2023-05-23T03:38:39;23.98;;;11.48;;
59880;SDS011;45751;51.380;10.326;2023-05-23T03:41:07;20.58;;;10.18;;
59880;SDS011;45751;51.380;10.326;2023-05-23T03:43:34;22.55;;;10.60;;
59880;SDS011;45751;51.380;10.326;2023-05-23T03:46:01;22.75;;;9.93;;
59880;SDS011;45751;51.380;10.326;2023-05-23T03:48:28;21.92;;;9.77;;
59880;SDS011;45751;51.380;10.326;2023-05-23T03:50:55;16.77;;;9.07;;
59880;SDS011;45751;51.380;10.326;2023-05-23T03:53:23;21.58;;;9.50;;
59880;SDS011;45751;51.380;10.326;2023-05-23T03:55:50;20.27;;;8.88;;
59880;SDS011;45751;51.380;10.326;2023-05-23T03:58:19;21.52;;;9.40;;
59880;SDS011;45751;51.380;10.326;2023-05-23T04:00:53;19.77;;;9.13;;
59880;SDS011;45751;51.380;10.326;2023-05-23T04:03:20;19.98;;;8.77;;
59880;SDS011;45751;51.380;10.326;2023-05-23T04:05:48;22.30;;;9.80;;
59880;SDS011;45751;51.380;10.326;2023-05-23T04:08:16;19.67;;;8.75;;
59880;SDS011;45751;51.380;10.326;2023-05-23T04:10:49;19.63;;;8.07;;
59880;SDS011;45751;51.380;10.326;2023-05-23T04:13:16;21.80;;;10.93;;
59880;SDS011;45751;51.380;10.326;2023-05-23T04:15:43;22.13;;;9.70;;
59880;SDS011;45751;51.380;10.326;2023-05-23T04:18:11;18.67;;;9.40;;
59880;SDS011;45751;51.380;10.326;2023-05-23T04:20:41;19.67;;;9.20;;
59880;SDS011;45751;51.380;10.326;2023-05-23T04:23:09;23.17;;;9.32;;
59880;SDS011;45751;51.380;10.326;2023-05-23T04:25:39;20.90;;;9.55;;
59880;SDS011;45751;51.380;10.326;2023-05-23T04:28:16;21.70;;;9.75;;
59880;SDS011;45751;51.380;10.326;2023-05-23T04:30:43;17.48;;;8.82;;
59880;SDS011;45751;51.380;10.326;2023-05-23T04:33:11;21.08;;;9.55;;
59880;SDS011;45751;51.380;10.326;2023-05-23T04:35:39;22.67;;;9.68;;
59880;SDS011;45751;51.380;10.326;2023-05-23T04:38:07;24.15;;;9.60;;
59880;SDS011;45751;51.380;10.326;2023-05-23T04:40:35;22.20;;;9.88;;
59880;SDS011;45751;51.380;10.326;2023-05-23T04:43:14;22.67;;;10.38;;
59880;SDS011;45751;51.380;10.326;2023-05-23T04:45:51;22.40;;;9.52;;
59880;SDS011;45751;51.380;10.326;2023-05-23T04:48:42;20.85;;;9.88;;
59880;SDS011;45751;51.380;10.326;2023-05-23T04:51:10;25.13;;;9.70;;
59880;SDS011;45751;51.380;10.326;2023-05-23T04:53:43;16.75;;;9.25;;
59880;SDS011;45751;51.380;10.326;2023-05-23T04:56:11;22.60;;;9.93;;
59880;SDS011;45751;51.380;10.326;2023-05-23T04:58:38;24.98;;;10.68;;
59880;SDS011;45751;51.380;10.326;2023-05-23T05:01:09;21.38;;;9.38;;
59880;SDS011;45751;51.380;10.326;2023-05-23T05:03:37;22.30;;;10.20;;
59880;SDS011;45751;51.380;10.326;2023-05-23T05:06:04;21.83;;;10.70;;
59880;SDS011;45751;51.380;10.326;2023-05-23T05:08:31;20.95;;;9.55;;
59880;SDS011;45751;51.380;10.326;2023-05-23T05:10:58;20.70;;;9.70;;
59880;SDS011;45751;51.380;10.326;2023-05-23T05:13:25;22.02;;;10.27;;
59880;SDS011;45751;51.380;10.326;2023-05-23T05:15:54;18.80;;;8.40;;
59880;SDS011;45751;51.380;10.326;2023-05-23T05:18:24;19.73;;;9.68;;
59880;SDS011;45751;51.380;10.326;2023-05-23T05:20:54;16.25;;;7.93;;
59880;SDS011;45751;51.380;10.326;2023-05-23T05:23:23;15.80;;;7.35;;
59880;SDS011;45751;51.380;10.326;2023-05-23T05:25:51;13.75;;;5.65;;
59880;SDS011;45751;51.380;10.326;2023-05-23T05:28:18;14.90;;;6.85;;
59880;SDS011;45751;51.380;10.326;2023-05-23T05:30:49;12.27;;;5.35;;
59880;SDS011;45751;51.380;10.326;2023-05-23T05:33:21;16.42;;;6.65;;
59880;SDS011;45751;51.380;10.326;2023-05-23T05:36:01;11.88;;;5.38;;
59880;SDS011;45751;51.380;10.326;2023-05-23T05:38:29;16.35;;;6.20;;
59880;SDS011;45751;51.380;10.326;2023-05-23T05:40:56;15.02;;;5.50;;
59880;SDS011;45751;51.380;10.326;2023-05-23T05:43:26;14.23;;;5.55;;
59880;SDS011;45751;51.380;10.326;2023-05-23T05:45:53;12.65;;;5.32;;
59880;SDS011;45751;51.380;10.326;2023-05-23T05:48:21;14.25;;;5.32;;
59880;SDS011;45751;51.380;10.326;2023-05-23T05:50:50;12.90;;;5.32;;
59880;SDS011;45751;51.380;10.326;2023-05-23T05:53:16;18.38;;;6.18;;
59880;SDS011;45751;51.380;10.326;2023-05-23T05:55:43;12.65;;;5.22;;
59880;SDS011;45751;51.380;10.326;2023-05-23T05:58:10;13.23;;;5.97;;
59880;SDS011;45751;51.380;10.326;2023-05-23T06:01:06;11.88;;;5.00;;
59880;SDS011;45751;51.380;10.326;2023-05-23T06:03:33;11.75;;;5.13;;
59880;SDS011;45751;51.380;10.326;2023-05-23T06:06:01;14.52;;;6.07;;
59880;SDS011;45751;51.380;10.326;2023-05-23T06:08:28;13.68;;;6.22;;
59880;SDS011;45751;51.380;10.326;2023-05-23T06:10:55;13.13;;;5.65;;
59880;SDS011;45751;51.380;10.326;2023-05-23T06:13:24;13.23;;;5.28;;
59880;SDS011;45751;51.380;10.326;2023-05-23T06:15:52;11.18;;;5.07;;
59880;SDS011;45751;51.380;10.326;2023-05-23T06:18:20;14.88;;;5.72;;
59880;SDS011;45751;51.380;10.326;2023-05-23T06:20:48;13.23;;;5.15;;
59880;SDS011;45751;51.380;10.326;2023-05-23T06:23:17;14.40;;;5.70;;
59880;SDS011;45751;51.380;10.326;2023-05-23T06:25:45;13.95;;;5.70;;
59880;SDS011;45751;51.380;10.326;2023-05-23T06:28:12;13.73;;;4.75;;
59880;SDS011;45751;51.380;10.326;2023-05-23T06:30:39;13.43;;;5.22;;
59880;SDS011;45751;51.380;10.326;2023-05-23T06:33:06;11.48;;;4.80;;
59880;SDS011;45751;51.380;10.326;2023-05-23T06:35:34;13.35;;;5.18;;
59880;SDS011;45751;51.380;10.326;2023-05-23T06:38:01;12.95;;;4.70;;
59880;SDS011;45751;51.380;10.326;2023-05-23T06:40:28;13.30;;;5.18;;
59880;SDS011;45751;51.380;10.326;2023-05-23T06:42:55;12.10;;;6.13;;
59880;SDS011;45751;51.380;10.326;2023-05-23T06:45:39;12.57;;;4.90;;
59880;SDS011;45751;51.380;10.326;2023-05-23T06:50:37;11.63;;;5.10;;
59880;SDS011;45751;51.380;10.326;2023-05-23T06:53:07;15.07;;;5.25;;
59880;SDS011;45751;51.380;10.326;2023-05-23T06:55:34;12.02;;;5.32;;
59880;SDS011;45751;51.380;10.326;2023-05-23T06:58:02;14.68;;;6.60;;
59880;SDS011;45751;51.380;10.326;2023-05-23T07:00:30;15.48;;;7.45;;
59880;SDS011;45751;51.380;10.326;2023-05-23T07:03:11;13.02;;;5.18;;
59880;SDS011;45751;51.380;10.326;2023-05-23T07:05:38;14.05;;;6.13;;
59880;SDS011;45751;51.380;10.326;2023-05-23T07:08:08;18.27;;;8.43;;
59880;SDS011;45751;51.380;10.326;2023-05-23T07:10:37;17.05;;;6.55;;
59880;SDS011;45751;51.380;10.326;2023-05-23T07:13:21;14.57;;;5.75;;
59880;SDS011;45751;51.380;10.326;2023-05-23T07:15:48;12.40;;;5.13;;
59880;SDS011;45751;51.380;10.326;2023-05-23T07:18:17;14.80;;;6.35;;
59880;SDS011;45751;51.380;10.326;2023-05-23T07:20:45;11.45;;;5.07;;
59880;SDS011;45751;51.380;10.326;2023-05-23T07:23:15;11.60;;;4.95;;
59880;SDS011;45751;51.380;10.326;2023-05-23T07:25:43;13.23;;;4.95;;
59880;SDS011;45751;51.380;10.326;2023-05-23T07:28:32;14.75;;;5.07;;
59880;SDS011;45751;51.380;10.326;2023-05-23T07:31:00;13.73;;;5.80;;
59880;SDS011;45751;51.380;10.326;2023-05-23T07:33:28;10.82;;;4.63;;
59880;SDS011;45751;51.380;10.326;2023-05-23T07:35:59;14.77;;;5.55;;
59880;SDS011;45751;51.380;10.326;2023-05-23T07:38:26;12.20;;;5.03;;
59880;SDS011;45751;51.380;10.326;2023-05-23T07:40:53;10.52;;;4.38;;
59880;SDS011;45751;51.380;10.326;2023-05-23T07:43:36;11.23;;;4.55;;
59880;SDS011;45751;51.380;10.326;2023-05-23T07:46:04;12.52;;;4.82;;
59880;SDS011;45751;51.380;10.326;2023-05-23T07:48:31;13.85;;;4.78;;
59880;SDS011;45751;51.380;10.326;2023-05-23T07:50:59;17.52;;;7.35;;
59880;SDS011;45751;51.380;10.326;2023-05-23T07:53:27;13.50;;;5.68;;
59880;SDS011;45751;51.380;10.326;2023-05-23T07:55:54;13.25;;;5.20;;
59880;SDS011;45751;51.380;10.326;2023-05-23T07:58:24;12.00;;;4.97;;
59880;SDS011;45751;51.380;10.326;2023-05-23T08:00:51;11.98;;;5.18;;
59880;SDS011;45751;51.380;10.326;2023-05-23T08:03:44;12.60;;;5.20;;
59880;SDS011;45751;51.380;10.326;2023-05-23T08:06:18;13.20;;;6.03;;
59880;SDS011;45751;51.380;10.326;2023-05-23T08:08:45;16.65;;;6.47;;
59880;SDS011;45751;51.380;10.326;2023-05-23T08:11:13;15.50;;;6.63;;
59880;SDS011;45751;51.380;10.326;2023-05-23T08:13:44;12.48;;;5.55;;
59880;SDS011;45751;51.380;10.326;2023-05-23T08:16:35;18.92;;;7.30;;
59880;SDS011;45751;51.380;10.326;2023-05-23T08:19:07;14.13;;;5.97;;
59880;SDS011;45751;51.380;10.326;2023-05-23T08:21:34;17.77;;;8.05;;
59880;SDS011;45751;51.380;10.326;2023-05-23T08:24:01;18.95;;;8.65;;
59880;SDS011;45751;51.380;10.326;2023-05-23T08:26:29;13.43;;;6.72;;
59880;SDS011;45751;51.380;10.326;2023-05-23T08:29:02;15.48;;;7.80;;
59880;SDS011;45751;51.380;10.326;2023-05-23T08:31:30;13.63;;;6.22;;
59880;SDS011;45751;51.380;10.326;2023-05-23T08:33:59;17.33;;;6.68;;
59880;SDS011;45751;51.380;10.326;2023-05-23T08:36:28;19.52;;;7.88;;
59880;SDS011;45751;51.380;10.326;2023-05-23T08:38:54;15.93;;;7.40;;
59880;SDS011;45751;51.380;10.326;2023-05-23T08:41:28;14.07;;;6.38;;
59880;SDS011;45751;51.380;10.326;2023-05-23T08:44:02;15.57;;;6.97;;
59880;SDS011;45751;51.380;10.326;2023-05-23T08:46:39;16.27;;;6.60;;
59880;SDS011;45751;51.380;10.326;2023-05-23T08:49:13;15.02;;;6.45;;
59880;SDS011;45751;51.380;10.326;2023-05-23T08:51:43;15.35;;;6.85;;
59880;SDS011;45751;51.380;10.326;2023-05-23T08:54:18;14.05;;;6.55;;
59880;SDS011;45751;51.380;10.326;2023-05-23T08:56:47;14.23;;;6.55;;
59880;SDS011;45751;51.380;10.326;2023-05-23T08:59:14;17.38;;;8.20;;
59880;SDS011;45751;51.380;10.326;2023-05-23T09:01:43;19.60;;;9.32;;
59880;SDS011;45751;51.380;10.326;2023-05-23T09:04:13;13.23;;;6.00;;
59880;SDS011;45751;51.380;10.326;2023-05-23T09:07:00;13.13;;;6.28;;
59880;SDS011;45751;51.380;10.326;2023-05-23T09:09:31;13.00;;;5.35;;
59880;SDS011;45751;51.380;10.326;2023-05-23T09:12:01;13.77;;;5.65;;
59880;SDS011;45751;51.380;10.326;2023-05-23T09:14:29;12.18;;;5.90;;
59880;SDS011;45751;51.380;10.326;2023-05-23T09:17:03;12.23;;;5.22;;
59880;SDS011;45751;51.380;10.326;2023-05-23T09:19:31;14.73;;;5.60;;
59880;SDS011;45751;51.380;10.326;2023-05-23T09:22:12;12.15;;;5.82;;
59880;SDS011;45751;51.380;10.326;2023-05-23T09:24:52;11.15;;;5.30;;
59880;SDS011;45751;51.380;10.326;2023-05-23T09:27:20;15.25;;;5.72;;
59880;SDS011;45751;51.380;10.326;2023-05-23T09:29:48;11.40;;;4.80;;
59880;SDS011;45751;51.380;10.326;2023-05-23T09:32:18;13.85;;;5.72;;
59880;SDS011;45751;51.380;10.326;2023-05-23T09:34:56;10.48;;;4.60;;
59880;SDS011;45751;51.380;10.326;2023-05-23T09:37:34;10.27;;;5.07;;
59880;SDS011;45751;51.380;10.326;2023-05-23T09:40:07;10.40;;;4.22;;
59880;SDS011;45751;51.380;10.326;2023-05-23T09:42:49;17.45;;;6.72;;
59880;SDS011;45751;51.380;10.326;2023-05-23T09:45:16;10.20;;;4.30;;
59880;SDS011;45751;51.380;10.326;2023-05-23T09:47:52;10.60;;;4.18;;
59880;SDS011;45751;51.380;10.326;2023-05-23T09:50:20;12.27;;;4.68;;
59880;SDS011;45751;51.380;10.326;2023-05-23T09:52:47;11.00;;;4.78;;
59880;SDS011;45751;51.380;10.326;2023-05-23T09:55:14;12.38;;;4.72;;
59880;SDS011;45751;51.380;10.326;2023-05-23T09:57:42;12.15;;;4.57;;
59880;SDS011;45751;51.380;10.326;2023-05-23T10:00:10;9.32;;;4.10;;
59880;SDS011;45751;51.380;10.326;2023-05-23T10:02:47;12.70;;;4.60;;
59880;SDS011;45751;51.380;10.326;2023-05-23T10:08:09;12.27;;;3.83;;
59880;SDS011;45751;51.380;10.326;2023-05-23T10:13:27;8.82;;;3.50;;
59880;SDS011;45751;51.380;10.326;2023-05-23T10:15:57;8.75;;;3.45;;
59880;SDS011;45751;51.380;10.326;2023-05-23T10:18:28;9.52;;;3.55;;
59880;SDS011;45751;51.380;10.326;2023-05-23T10:21:02;7.72;;;2.70;;
59880;SDS011;45751;51.380;10.326;2023-05-23T10:23:34;9.27;;;3.45;;
59880;SDS011;45751;51.380;10.326;2023-05-23T10:26:03;8.35;;;3.33;;
59880;SDS011;45751;51.380;10.326;2023-05-23T10:28:31;7.03;;;2.78;;
59880;SDS011;45751;51.380;10.326;2023-05-23T10:30:58;8.52;;;3.35;;
59880;SDS011;45751;51.380;10.326;2023-05-23T10:33:26;9.93;;;3.38;;
59880;SDS011;45751;51.380;10.326;2023-05-23T10:36:03;8.73;;;3.83;;
59880;SDS011;45751;51.380;10.326;2023-05-23T10:38:40;7.95;;;3.03;;
59880;SDS011;45751;51.380;10.326;2023-05-23T10:41:15;7.22;;;3.30;;
59880;SDS011;45751;51.380;10.326;2023-05-23T10:44:06;8.30;;;3.00;;
59880;SDS011;45751;51.380;10.326;2023-05-23T10:46:53;8.43;;;3.40;;
59880;SDS011;45751;51.380;10.326;2023-05-23T10:49:42;7.18;;;2.72;;
59880;SDS011;45751;51.380;10.326;2023-05-23T10:52:11;9.10;;;3.83;;
59880;SDS011;45751;51.380;10.326;2023-05-23T10:54:50;8.40;;;3.30;;
59880;SDS011;45751;51.380;10.326;2023-05-23T10:57:19;8.60;;;3.10;;
59880;SDS011;45751;51.380;10.326;2023-05-23T10:59:55;8.63;;;3.53;;
59880;SDS011;45751;51.380;10.326;2023-05-23T11:02:26;11.45;;;3.88;;
59880;SDS011;45751;51.380;10.326;2023-05-23T11:07:43;11.20;;;4.10;;
59880;SDS011;45751;51.380;10.326;2023-05-23T11:10:11;9.70;;;4.40;;
59880;SDS011;45751;51.380;10.326;2023-05-23T11:12:42;12.15;;;4.38;;
59880;SDS011;45751;51.380;10.326;2023-05-23T11:17:49;9.93;;;2.92;;
59880;SDS011;45751;51.380;10.326;2023-05-23T11:20:25;10.23;;;3.70;;
59880;SDS011;45751;51.380;10.326;2023-05-23T11:23:00;13.07;;;4.63;;
59880;SDS011;45751;51.380;10.326;2023-05-23T11:28:14;14.05;;;4.70;;
59880;SDS011;45751;51.380;10.326;2023-05-23T11:30:42;9.57;;;3.72;;
59880;SDS011;45751;51.380;10.326;2023-05-23T11:33:13;9.00;;;4.10;;
59880;SDS011;45751;51.380;10.326;2023-05-23T11:35:42;9.32;;;4.43;;
59880;SDS011;45751;51.380;10.326;2023-05-23T11:38:11;10.23;;;4.13;;
59880;SDS011;45751;51.380;10.326;2023-05-23T11:40:40;8.95;;;3.45;;
59880;SDS011;45751;51.380;10.326;2023-05-23T11:43:10;8.73;;;3.13;;
59880;SDS011;45751;51.380;10.326;2023-05-23T11:45:42;9.30;;;3.45;;
59880;SDS011;45751;51.380;10.326;2023-05-23T11:48:10;10.48;;;3.47;;
59880;SDS011;45751;51.380;10.326;2023-05-23T11:50:45;8.07;;;3.47;;
59880;SDS011;45751;51.380;10.326;2023-05-23T11:53:13;7.18;;;2.50;;
59880;SDS011;45751;51.380;10.326;2023-05-23T11:58:24;7.70;;;2.22;;
59880;SDS011;45751;51.380;10.326;2023-05-23T12:00:57;8.77;;;2.78;;
59880;SDS011;45751;51.380;10.326;2023-05-23T12:03:26;9.20;;;1.95;;
59880;SDS011;45751;51.380;10.326;2023-05-23T12:05:53;6.90;;;2.30;;
59880;SDS011;45751;51.380;10.326;2023-05-23T12:08:21;6.25;;;2.05;;
59880;SDS011;45751;51.380;10.326;2023-05-23T12:10:51;5.75;;;1.85;;
59880;SDS011;45751;51.380;10.326;2023-05-23T12:13:25;5.47;;;1.50;;
59880;SDS011;45751;51.380;10.326;2023-05-23T12:15:55;6.57;;;1.45;;
59880;SDS011;45751;51.380;10.326;2023-05-23T12:18:26;5.28;;;1.45;;
59880;SDS011;45751;51.380;10.326;2023-05-23T12:23:25;5.47;;;1.50;;
59880;SDS011;45751;51.380;10.326;2023-05-23T12:25:54;6.15;;;1.80;;
59880;SDS011;45751;51.380;10.326;2023-05-23T12:28:43;5.53;;;1.80;;
59880;SDS011;45751;51.380;10.326;2023-05-23T12:31:15;5.97;;;1.92;;
59880;SDS011;45751;51.380;10.326;2023-05-23T12:33:44;5.28;;;1.88;;
59880;SDS011;45751;51.380;10.326;2023-05-23T12:36:14;6.45;;;2.20;;
59880;SDS011;45751;51.380;10.326;2023-05-23T12:38:47;8.50;;;2.63;;
59880;SDS011;45751;51.380;10.326;2023-05-23T12:41:15;8.27;;;2.38;;
59880;SDS011;45751;51.380;10.326;2023-05-23T12:43:48;13.65;;;3.58;;
59880;SDS011;45751;51.380;10.326;2023-05-23T12:46:20;9.75;;;3.88;;
59880;SDS011;45751;51.380;10.326;2023-05-23T12:48:48;10.52;;;3.97;;
59880;SDS011;45751;51.380;10.326;2023-05-23T12:51:15;10.00;;;3.50;;
59880;SDS011;45751;51.380;10.326;2023-05-23T12:53:43;9.15;;;3.40;;
59880;SDS011;45751;51.380;10.326;2023-05-23T12:56:10;10.85;;;4.35;;
59880;SDS011;45751;51.380;10.326;2023-05-23T12:58:37;10.55;;;4.65;;
59880;SDS011;45751;51.380;10.326;2023-05-23T13:01:04;13.88;;;4.55;;
59880;SDS011;45751;51.380;10.326;2023-05-23T13:03:31;16.73;;;5.82;;
59880;SDS011;45751;51.380;10.326;2023-05-23T13:05:59;12.50;;;5.70;;
59880;SDS011;45751;51.380;10.326;2023-05-23T13:08:26;13.43;;;5.40;;
59880;SDS011;45751;51.380;10.326;2023-05-23T13:10:53;11.43;;;4.57;;
59880;SDS011;45751;51.380;10.326;2023-05-23T13:13:20;13.65;;;5.28;;
59880;SDS011;45751;51.380;10.326;2023-05-23T13:15:47;14.93;;;5.13;;
59880;SDS011;45751;51.380;10.326;2023-05-23T13:18:16;16.55;;;5.63;;
59880;SDS011;45751;51.380;10.326;2023-05-23T13:20:44;12.32;;;5.13;;
59880;SDS011;45751;51.380;10.326;2023-05-23T13:23:12;12.80;;;5.47;;
59880;SDS011;45751;51.380;10.326;2023-05-23T13:25:39;17.00;;;4.95;;
59880;SDS011;45751;51.380;10.326;2023-05-23T13:28:06;14.07;;;5.82;;
59880;SDS011;45751;51.380;10.326;2023-05-23T13:30:33;12.50;;;4.85;;
59880;SDS011;45751;51.380;10.326;2023-05-23T13:33:00;12.18;;;4.53;;
59880;SDS011;45751;51.380;10.326;2023-05-23T13:35:27;10.48;;;5.15;;
59880;SDS011;45751;51.380;10.326;2023-05-23T13:37:54;15.35;;;6.45;;
59880;SDS011;45751;51.380;10.326;2023-05-23T13:40:21;14.70;;;5.38;;
59880;SDS011;45751;51.380;10.326;2023-05-23T13:42:49;13.40;;;6.63;;
59880;SDS011;45751;51.380;10.326;2023-05-23T13:45:17;12.80;;;5.32;;
59880;SDS011;45751;51.380;10.326;2023-05-23T13:47:45;14.30;;;6.05;;
59880;SDS011;45751;51.380;10.326;2023-05-23T13:50:12;17.35;;;5.80;;
59880;SDS011;45751;51.380;10.326;2023-05-23T13:52:39;18.70;;;7.00;;
59880;SDS011;45751;51.380;10.326;2023-05-23T13:55:11;17.20;;;6.40;;
59880;SDS011;45751;51.380;10.326;2023-05-23T13:57:38;23.55;;;6.65;;
59880;SDS011;45751;51.380;10.326;2023-05-23T14:00:05;16.17;;;5.72;;
59880;SDS011;45751;51.380;10.326;2023-05-23T14:02:34;14.25;;;5.53;;
59880;SDS011;45751;51.380;10.326;2023-05-23T14:05:02;14.55;;;6.22;;
59880;SDS011;45751;51.380;10.326;2023-05-23T14:07:29;13.63;;;5.35;;
59880;SDS011;45751;51.380;10.326;2023-05-23T14:09:56;14.45;;;5.50;;
59880;SDS011;45751;51.380;10.326;2023-05-23T14:12:25;15.38;;;5.00;;
59880;SDS011;45751;51.380;10.326;2023-05-23T14:14:52;13.43;;;5.20;;
59880;SDS011;45751;51.380;10.326;2023-05-23T14:17:19;15.77;;;5.90;;
59880;SDS011;45751;51.380;10.326;2023-05-23T14:19:46;14.85;;;6.18;;
59880;SDS011;45751;51.380;10.326;2023-05-23T14:22:13;16.73;;;6.88;;
59880;SDS011;45751;51.380;10.326;2023-05-23T14:24:40;15.15;;;6.80;;
59880;SDS011;45751;51.380;10.326;2023-05-23T14:27:07;15.27;;;6.55;;
59880;SDS011;45751;51.380;10.326;2023-05-23T14:29:36;14.02;;;6.90;;
59880;SDS011;45751;51.380;10.326;2023-05-23T14:32:04;16.23;;;6.32;;
59880;SDS011;45751;51.380;10.326;2023-05-23T14:34:31;16.20;;;6.05;;
59880;SDS011;45751;51.380;10.326;2023-05-23T14:36:59;23.10;;;7.28;;
59880;SDS011;45751;51.380;10.326;2023-05-23T14:39:26;21.25;;;6.78;;
59880;SDS011;45751;51.380;10.326;2023-05-23T14:41:54;21.23;;;6.82;;
59880;SDS011;45751;51.380;10.326;2023-05-23T14:44:21;16.08;;;6.45;;
59880;SDS011;45751;51.380;10.326;2023-05-23T14:46:48;17.10;;;6.07;;
59880;SDS011;45751;51.380;10.326;2023-05-23T14:49:15;16.73;;;7.05;;
59880;SDS011;45751;51.380;10.326;2023-05-23T14:51:43;15.50;;;6.22;;
59880;SDS011;45751;51.380;10.326;2023-05-23T14:54:17;15.43;;;6.47;;
59880;SDS011;45751;51.380;10.326;2023-05-23T14:56:44;12.45;;;5.18;;
59880;SDS011;45751;51.380;10.326;2023-05-23T14:59:11;16.33;;;6.68;;
59880;SDS011;45751;51.380;10.326;2023-05-23T15:01:38;21.58;;;6.93;;
59880;SDS011;45751;51.380;10.326;2023-05-23T15:04:06;17.90;;;6.03;;